Time;durP1;ratioP1;P1;durP2;ratioP2;P2;SDS_P1;SDS_P2;PMS_P1;PMS_P2;Temp;Humidity;BMP_temperature;BMP_pressure;BME280_temperature;BME280_humidity;BME280_pressure;Samples;Min_cycle;Max_cycle;Signal;HPM_P1;HPM_P2
2023/07/07 00:01:01;;;;;;;6.82;3.45;;;;;;;14.82;90.05;101833.63;4999626;28;20360;-53
2023/07/07 00:03:26;;;;;;;6.47;3.80;;;;;;;14.76;89.68;101830.47;4997220;28;20048;-55
2023/07/07 00:05:51;;;;;;;6.45;3.80;;;;;;;14.76;90.29;101833.16;5000327;28;20109;-51
2023/07/07 00:08:17;;;;;;;5.95;3.25;;;;;;;14.71;90.70;101824.66;4994826;28;20050;-52
2023/07/07 00:10:42;;;;;;;5.80;3.65;;;;;;;14.68;89.59;101830.22;4996670;28;20030;-52
2023/07/07 00:13:09;;;;;;;5.28;3.83;;;;;;;14.64;90.68;101831.47;4997589;28;20121;-51
2023/07/07 00:15:35;;;;;;;5.68;3.83;;;;;;;14.65;90.50;101832.31;4999272;28;20038;-51
2023/07/07 00:18:00;;;;;;;6.85;3.85;;;;;;;14.61;90.63;101831.69;4998293;28;20025;-51
2023/07/07 00:20:26;;;;;;;3.92;3.53;;;;;;;14.60;91.00;101835.31;5000593;28;20037;-51
2023/07/07 00:22:52;;;;;;;7.03;3.60;;;;;;;14.56;90.63;101837.34;4997885;28;20022;-51
2023/07/07 00:25:17;;;;;;;8.82;3.85;;;;;;;14.58;90.69;101840.75;5001727;28;20471;-51
2023/07/07 00:27:42;;;;;;;6.78;3.45;;;;;;;14.55;90.43;101834.81;5001359;28;20030;-51
2023/07/07 00:30:08;;;;;;;5.68;3.30;;;;;;;14.54;90.96;101830.44;5002137;28;20030;-51
2023/07/07 00:32:34;;;;;;;4.03;3.50;;;;;;;14.54;90.33;101833.97;5002972;28;20037;-51
2023/07/07 00:34:59;;;;;;;4.68;3.40;;;;;;;14.49;90.97;101832.59;5000110;28;20512;-51
2023/07/07 00:37:24;;;;;;;4.22;3.45;;;;;;;14.43;90.92;101831.25;5000494;28;20057;-51
2023/07/07 00:39:50;;;;;;;6.15;3.70;;;;;;;14.42;91.16;101834.88;5001960;28;20075;-51
2023/07/07 00:42:15;;;;;;;6.65;3.65;;;;;;;14.42;90.59;101837.56;4993742;28;20096;-51
2023/07/07 00:45:11;;;;;;;5.43;3.67;;;;;;;14.47;90.04;101837.22;5001968;28;20053;-51
2023/07/07 00:47:42;;;;;;;7.07;4.00;;;;;;;14.35;89.67;101839.84;4995018;28;20027;-51
2023/07/07 00:50:09;;;;;;;7.10;3.90;;;;;;;14.33;89.78;101839.13;5003744;28;20036;-50
2023/07/07 00:52:36;;;;;;;6.90;4.13;;;;;;;14.31;90.37;101835.72;5002677;28;20654;-52
2023/07/07 00:55:02;;;;;;;8.68;4.28;;;;;;;14.34;90.28;101829.28;5000827;28;20443;-51
2023/07/07 00:57:28;;;;;;;7.80;4.05;;;;;;;14.29;90.27;101823.44;5019472;28;20121;-51
2023/07/07 00:59:53;;;;;;;5.32;4.00;;;;;;;14.29;90.33;101835.00;5000485;28;20034;-50
2023/07/07 01:02:25;;;;;;;9.30;4.15;;;;;;;14.24;90.88;101835.34;5004786;28;20034;-51
2023/07/07 01:04:59;;;;;;;5.95;4.00;;;;;;;14.25;90.92;101844.22;4999046;28;20431;-51
2023/07/07 01:07:30;;;;;;;6.60;4.20;;;;;;;14.23;91.28;101846.16;5006092;28;20088;-51
2023/07/07 01:09:55;;;;;;;5.72;4.03;;;;;;;14.21;90.74;101842.75;4998572;28;20034;-51
2023/07/07 01:12:21;;;;;;;7.00;4.05;;;;;;;14.18;90.79;101843.81;4997754;28;20534;-52
2023/07/07 01:14:49;;;;;;;10.55;4.57;;;;;;;14.14;91.33;101849.50;5003900;28;20509;-51
2023/07/07 01:17:20;;;;;;;6.03;4.35;;;;;;;14.14;91.16;101841.50;5002371;28;20041;-51
2023/07/07 01:20:13;;;;;;;9.18;4.70;;;;;;;14.12;90.97;101846.09;5000444;28;20026;-51
2023/07/07 01:22:41;;;;;;;7.70;4.30;;;;;;;14.09;91.30;101838.31;5003300;28;20038;-52
2023/07/07 01:25:28;;;;;;;7.78;4.40;;;;;;;14.09;90.58;101847.22;5005944;28;20026;-51
2023/07/07 01:28:23;;;;;;;9.20;5.30;;;;;;;14.04;91.10;101841.38;5001922;28;20030;-51
2023/07/07 01:30:54;;;;;;;6.60;4.63;;;;;;;14.02;91.09;101841.47;5002780;28;20037;-52
2023/07/07 01:33:24;;;;;;;5.32;4.15;;;;;;;13.99;91.40;101848.84;5000194;28;20030;-51
2023/07/07 01:35:49;;;;;;;6.75;4.45;;;;;;;13.96;91.50;101841.94;5002036;28;20030;-51
2023/07/07 01:38:32;;;;;;;7.82;4.65;;;;;;;13.97;91.03;101830.28;5003073;28;20076;-52
2023/07/07 01:41:46;;;;;;;5.65;4.60;;;;;;;13.96;91.40;101835.75;5000481;28;20030;-51
2023/07/07 01:44:36;;;;;;;9.15;4.88;;;;;;;13.93;91.08;101838.66;4991999;28;20042;-51
2023/07/07 01:47:11;;;;;;;5.80;4.50;;;;;;;13.89;90.92;101840.69;4997167;28;20026;-51
2023/07/07 01:49:45;;;;;;;9.60;5.20;;;;;;;13.83;91.64;101839.31;5000176;28;20058;-53
2023/07/07 01:52:37;;;;;;;6.47;4.68;;;;;;;13.85;90.74;101840.03;5000120;28;20026;-51
2023/07/07 01:55:14;;;;;;;6.80;4.28;;;;;;;13.80;91.51;101836.88;5002386;28;20055;-52
2023/07/07 01:57:43;;;;;;;8.02;5.03;;;;;;;13.76;91.56;101834.56;5004531;28;20113;-53
2023/07/07 02:00:09;;;;;;;7.85;5.28;;;;;;;13.75;91.81;101831.03;4999646;28;20030;-52
2023/07/07 02:02:35;;;;;;;8.65;4.45;;;;;;;13.74;91.48;101832.00;5005380;28;20040;-54
2023/07/07 02:05:00;;;;;;;6.95;4.43;;;;;;;13.72;92.12;101830.41;5003820;28;20045;-52
2023/07/07 02:07:26;;;;;;;6.78;4.68;;;;;;;13.71;92.12;101840.25;5001257;28;20025;-54
2023/07/07 02:09:51;;;;;;;8.63;4.97;;;;;;;13.67;92.08;101836.06;5000650;28;20026;-52
2023/07/07 02:12:16;;;;;;;8.90;5.10;;;;;;;13.66;91.92;101834.41;5002254;28;20061;-55
2023/07/07 02:14:42;;;;;;;6.20;4.90;;;;;;;13.63;92.56;101831.94;5001379;28;20022;-54
2023/07/07 02:17:07;;;;;;;8.70;4.53;;;;;;;13.59;93.10;101830.44;5002437;28;20762;-51
2023/07/07 02:19:33;;;;;;;8.90;4.82;;;;;;;13.58;92.98;101824.28;4998228;28;20014;-51
2023/07/07 02:21:58;;;;;;;7.18;4.97;;;;;;;13.54;93.00;101832.59;5002377;28;20061;-53
2023/07/07 02:24:23;;;;;;;9.15;5.00;;;;;;;13.54;92.56;101832.59;5002197;28;20030;-52
2023/07/07 02:26:50;;;;;;;7.70;5.25;;;;;;;13.53;92.34;101833.59;5003182;28;20468;-51
2023/07/07 02:29:16;;;;;;;7.10;4.95;;;;;;;13.46;92.58;101831.38;5003730;28;20022;-51
2023/07/07 02:31:41;;;;;;;8.15;5.07;;;;;;;13.44;92.74;101822.63;5003002;28;20061;-54
2023/07/07 02:34:06;;;;;;;5.88;5.25;;;;;;;13.47;92.04;101829.53;5000867;28;20434;-53
2023/07/07 02:36:31;;;;;;;5.00;4.50;;;;;;;13.46;92.17;101839.38;5000153;28;20031;-52
2023/07/07 02:38:57;;;;;;;6.40;4.90;;;;;;;13.42;92.30;101829.03;4991420;28;20030;-52
2023/07/07 02:41:22;;;;;;;6.50;4.72;;;;;;;13.40;92.09;101826.47;5002279;28;20431;-53
2023/07/07 02:43:48;;;;;;;7.68;5.30;;;;;;;13.35;92.46;101828.63;5003544;28;20137;-52
2023/07/07 02:46:13;;;;;;;8.20;5.25;;;;;;;13.31;92.93;101827.13;5001151;28;20037;-51
2023/07/07 02:48:38;;;;;;;6.85;4.53;;;;;;;13.30;92.19;101833.41;5001751;28;20027;-51
2023/07/07 02:51:06;;;;;;;5.57;4.55;;;;;;;13.31;92.64;101843.13;5002115;28;20381;-52
2023/07/07 02:53:34;;;;;;;6.43;4.75;;;;;;;13.27;92.89;101836.28;4999791;28;20120;-52
2023/07/07 02:56:00;;;;;;;5.25;4.50;;;;;;;13.23;93.20;101837.50;5004297;28;20034;-53
2023/07/07 02:58:26;;;;;;;6.03;4.85;;;;;;;13.23;93.16;101842.81;5000336;28;20036;-51
2023/07/07 03:00:52;;;;;;;8.50;4.82;;;;;;;13.19;92.78;101839.53;4999782;28;20030;-52
2023/07/07 03:03:19;;;;;;;6.65;4.97;;;;;;;13.20;93.21;101848.38;5002703;28;20037;-54
2023/07/07 03:05:45;;;;;;;7.40;4.80;;;;;;;13.15;93.64;101856.69;5000348;28;20030;-54
2023/07/07 03:08:11;;;;;;;6.82;5.03;;;;;;;13.15;93.10;101851.38;4998903;28;20037;-53
2023/07/07 03:10:38;;;;;;;8.70;5.30;;;;;;;13.07;93.82;101846.59;5003358;28;20036;-51
2023/07/07 03:13:03;;;;;;;8.40;5.50;;;;;;;13.10;93.37;101853.50;4997789;28;20022;-51
2023/07/07 03:15:38;;;;;;;8.43;5.30;;;;;;;13.07;93.47;101854.59;5000470;28;20030;-51
2023/07/07 03:18:09;;;;;;;6.53;4.95;;;;;;;13.01;94.10;101855.03;4998536;28;20113;-52
2023/07/07 03:20:35;;;;;;;8.80;4.95;;;;;;;13.03;94.25;101844.25;4994591;28;20033;-51
2023/07/07 03:23:01;;;;;;;9.63;4.88;;;;;;;13.01;93.82;101852.34;5000787;28;20360;-51
2023/07/07 03:25:27;;;;;;;7.47;5.30;;;;;;;12.95;93.50;101845.63;4997373;28;20392;-51
2023/07/07 03:27:52;;;;;;;7.20;5.45;;;;;;;12.96;93.55;101851.84;5002671;28;20022;-51
2023/07/07 03:30:18;;;;;;;6.40;5.10;;;;;;;12.94;93.36;101851.09;4987811;28;20049;-51
2023/07/07 03:32:44;;;;;;;9.48;5.45;;;;;;;12.90;93.93;101852.25;4996771;28;20038;-51
2023/07/07 03:35:09;;;;;;;8.85;5.45;;;;;;;12.91;94.08;101853.97;4999122;28;20503;-51
2023/07/07 03:37:36;;;;;;;10.68;5.47;;;;;;;12.88;93.25;101852.38;5001467;28;20022;-51
2023/07/07 03:40:01;;;;;;;6.53;5.13;;;;;;;12.85;93.50;101854.41;5010213;28;20038;-51
2023/07/07 03:42:27;;;;;;;8.10;4.82;;;;;;;12.84;94.40;101850.88;5000251;28;20042;-53
2023/07/07 03:44:52;;;;;;;6.00;5.40;;;;;;;12.82;94.26;101844.78;5002120;28;20058;-52
2023/07/07 03:47:17;;;;;;;7.65;5.18;;;;;;;12.84;93.96;101850.00;4997025;28;20037;-51
2023/07/07 03:49:43;;;;;;;6.93;4.80;;;;;;;12.84;93.89;101852.69;5002235;28;20026;-51
2023/07/07 03:52:08;;;;;;;7.82;5.30;;;;;;;12.83;93.14;101861.66;5002494;28;20037;-51
2023/07/07 03:54:33;;;;;;;7.30;5.05;;;;;;;12.79;94.77;101858.34;4998535;28;20033;-54
2023/07/07 03:56:59;;;;;;;6.57;4.82;;;;;;;12.78;94.57;101853.97;4997027;28;20026;-52
2023/07/07 03:59:26;;;;;;;6.72;4.95;;;;;;;12.71;94.79;101847.38;4999081;28;20032;-54
2023/07/07 04:01:51;;;;;;;8.20;5.07;;;;;;;12.78;94.05;101851.31;4999948;28;20025;-51
2023/07/07 04:04:16;;;;;;;8.05;4.80;;;;;;;12.80;93.95;101856.53;4998412;28;20022;-54
2023/07/07 04:06:42;;;;;;;8.30;5.10;;;;;;;12.77;95.17;101845.13;5000302;28;20037;-54
2023/07/07 04:09:07;;;;;;;8.68;4.78;;;;;;;12.77;95.26;101853.13;4994265;28;20036;-54
2023/07/07 04:11:32;;;;;;;6.63;4.70;;;;;;;12.73;95.54;101853.44;4995820;28;20030;-53
2023/07/07 04:13:58;;;;;;;6.28;4.78;;;;;;;12.74;95.86;101853.34;4999916;28;20026;-54
2023/07/07 04:16:25;;;;;;;5.60;4.78;;;;;;;12.75;95.25;101854.19;4999087;28;20380;-54
2023/07/07 04:18:54;;;;;;;8.02;4.97;;;;;;;12.77;96.25;101874.47;5003486;28;20037;-54
2023/07/07 04:21:22;;;;;;;7.32;4.90;;;;;;;12.77;95.02;101865.59;4996345;28;20104;-51
2023/07/07 04:23:51;;;;;;;9.32;5.30;;;;;;;12.82;95.79;101867.94;4994622;28;20041;-52
2023/07/07 04:26:17;;;;;;;10.67;5.23;;;;;;;12.82;95.78;101865.28;4996913;28;20052;-51
2023/07/07 04:28:43;;;;;;;7.07;5.05;;;;;;;12.85;95.72;101867.72;5001358;28;20034;-52
2023/07/07 04:31:10;;;;;;;8.25;5.38;;;;;;;12.85;95.60;101873.91;5000842;28;20036;-51
2023/07/07 04:33:36;;;;;;;8.85;5.03;;;;;;;12.91;96.59;101868.16;4998559;28;20030;-51
2023/07/07 04:36:05;;;;;;;10.38;5.05;;;;;;;12.92;96.41;101877.00;4999773;28;20021;-51
2023/07/07 04:38:31;;;;;;;8.52;5.10;;;;;;;12.95;95.90;101872.28;4997325;28;20286;-52
2023/07/07 04:41:04;;;;;;;6.97;5.10;;;;;;;13.01;97.19;101863.03;5002335;28;20034;-55
2023/07/07 04:43:30;;;;;;;9.80;5.57;;;;;;;13.04;96.92;101869.94;4997157;28;20034;-51
2023/07/07 04:45:55;;;;;;;7.50;5.45;;;;;;;13.08;96.74;101861.63;4999633;28;20038;-51
2023/07/07 04:48:20;;;;;;;8.23;5.47;;;;;;;13.14;96.80;101866.53;5000367;28;20679;-51
2023/07/07 04:50:45;;;;;;;8.05;5.57;;;;;;;13.23;95.58;101862.34;5001962;28;20117;-51
2023/07/07 04:53:11;;;;;;;11.15;5.90;;;;;;;13.32;96.22;101864.41;5000593;28;20122;-54
2023/07/07 04:55:42;;;;;;;10.63;5.75;;;;;;;13.37;95.49;101852.53;5003089;28;20048;-52
2023/07/07 04:58:08;;;;;;;9.77;5.85;;;;;;;13.55;95.30;101863.69;4998943;28;20058;-52
2023/07/07 05:00:33;;;;;;;9.45;5.60;;;;;;;13.66;96.13;101861.09;4999640;28;20495;-53
2023/07/07 05:02:59;;;;;;;8.23;5.88;;;;;;;13.78;94.54;101868.19;4996387;28;20108;-51
2023/07/07 05:05:24;;;;;;;8.35;6.10;;;;;;;13.95;93.86;101866.09;4999881;28;20060;-53
2023/07/07 05:07:50;;;;;;;7.35;5.85;;;;;;;14.08;93.54;101866.88;4997333;28;20097;-53
2023/07/07 05:10:15;;;;;;;9.02;6.22;;;;;;;14.25;91.82;101862.91;5000635;28;20030;-52
2023/07/07 05:12:41;;;;;;;8.40;6.20;;;;;;;14.40;92.36;101861.72;4997972;28;20019;-52
2023/07/07 05:15:06;;;;;;;10.82;6.22;;;;;;;14.56;89.85;101866.75;5001574;28;20026;-51
2023/07/07 05:17:32;;;;;;;8.98;5.97;;;;;;;14.69;87.74;101873.84;5000407;28;20357;-51
2023/07/07 05:19:57;;;;;;;7.82;5.88;;;;;;;14.82;86.89;101873.75;4993787;28;20427;-51
2023/07/07 05:22:22;;;;;;;11.48;6.10;;;;;;;14.90;88.19;101874.84;4996310;28;20436;-51
2023/07/07 05:24:48;;;;;;;7.50;6.05;;;;;;;14.97;86.09;101876.09;4998353;28;20036;-51
2023/07/07 05:27:13;;;;;;;11.35;6.20;;;;;;;15.04;86.35;101875.59;5013828;28;20364;-51
2023/07/07 05:29:39;;;;;;;11.50;5.78;;;;;;;15.13;85.08;101874.88;4999217;28;20475;-53
2023/07/07 05:32:05;;;;;;;9.45;5.50;;;;;;;15.22;84.29;101876.84;4995802;28;20490;-53
2023/07/07 05:34:30;;;;;;;8.80;5.43;;;;;;;15.35;83.27;101874.88;5003170;28;20046;-51
2023/07/07 05:36:55;;;;;;;10.48;5.30;;;;;;;15.53;80.94;101877.84;5003430;28;20550;-53
2023/07/07 05:39:21;;;;;;;7.55;4.97;;;;;;;15.75;81.13;101873.44;5003415;28;20514;-51
2023/07/07 05:41:46;;;;;;;12.50;6.07;;;;;;;15.97;79.97;101875.22;5004443;28;20030;-51
2023/07/07 05:44:11;;;;;;;11.02;5.43;;;;;;;16.20;79.36;101867.91;5005326;28;20061;-52
2023/07/07 05:46:37;;;;;;;12.77;6.30;;;;;;;16.42;77.48;101879.50;5004590;28;20069;-51
2023/07/07 05:49:02;;;;;;;9.57;5.63;;;;;;;16.66;76.22;101873.88;5004925;28;20077;-51
2023/07/07 05:51:28;;;;;;;14.38;5.40;;;;;;;16.92;75.85;101884.22;5005689;28;20062;-52
2023/07/07 05:53:53;;;;;;;8.43;4.50;;;;;;;17.13;73.80;101879.66;4997522;28;20030;-53
2023/07/07 05:56:22;;;;;;;10.48;4.95;;;;;;;17.37;71.94;101879.31;5000250;28;20041;-53
2023/07/07 05:58:49;;;;;;;6.45;3.60;;;;;;;17.61;71.48;101882.63;4981784;28;20557;-51
2023/07/07 06:01:14;;;;;;;10.27;4.10;;;;;;;17.84;69.84;101880.56;4998539;28;20125;-54
2023/07/07 06:03:41;;;;;;;7.93;3.95;;;;;;;18.03;67.72;101880.56;4999329;28;20121;-52
2023/07/07 06:06:11;;;;;;;6.10;3.95;;;;;;;18.22;66.94;101878.88;4998359;28;20427;-54
2023/07/07 06:08:38;;;;;;;7.40;3.53;;;;;;;18.45;64.63;101877.59;5000234;28;20053;-51
2023/07/07 06:11:04;;;;;;;10.80;4.15;;;;;;;18.67;64.53;101879.09;4999475;28;20038;-55
2023/07/07 06:13:30;;;;;;;6.38;3.70;;;;;;;18.86;63.61;101885.44;4998842;28;20080;-53
2023/07/07 06:15:56;;;;;;;6.97;3.80;;;;;;;19.15;63.51;101882.66;4981235;28;20025;-52
2023/07/07 06:18:22;;;;;;;6.15;3.60;;;;;;;19.37;62.41;101884.09;4995438;28;20038;-54
2023/07/07 06:21:07;;;;;;;5.28;3.40;;;;;;;19.59;63.60;101880.13;5004098;28;20033;-53
2023/07/07 06:23:33;;;;;;;5.32;3.30;;;;;;;19.88;59.90;101880.97;5001705;28;20096;-55
2023/07/07 06:26:01;;;;;;;6.85;3.25;;;;;;;20.02;58.81;101883.13;5001100;28;20026;-55
2023/07/07 06:28:27;;;;;;;5.63;3.55;;;;;;;20.18;57.16;101885.13;5004156;28;20542;-54
2023/07/07 06:30:52;;;;;;;10.40;3.42;;;;;;;20.41;58.07;101888.19;5000227;28;20026;-52
2023/07/07 06:33:19;;;;;;;7.00;3.28;;;;;;;20.57;57.37;101881.19;5001029;28;20042;-54
2023/07/07 06:35:44;;;;;;;7.55;3.63;;;;;;;20.76;55.89;101889.13;4999141;28;20026;-55
2023/07/07 06:38:10;;;;;;;9.48;4.03;;;;;;;20.88;54.85;101893.25;5001876;28;20546;-54
2023/07/07 06:40:35;;;;;;;7.50;3.75;;;;;;;21.08;53.92;101882.19;4997042;28;20472;-52
2023/07/07 06:43:01;;;;;;;6.53;3.58;;;;;;;21.25;54.05;101881.28;5000239;28;20046;-53
2023/07/07 06:45:27;;;;;;;7.95;3.67;;;;;;;21.42;52.74;101879.47;4998363;28;20577;-54
2023/07/07 06:47:54;;;;;;;8.15;4.13;;;;;;;21.62;52.92;101885.47;4999289;28;20029;-54
2023/07/07 06:50:32;;;;;;;6.63;3.17;;;;;;;21.83;54.25;101886.03;5014773;28;20499;-54
2023/07/07 06:52:58;;;;;;;6.80;3.70;;;;;;;22.11;51.19;101881.16;4998694;28;20476;-55
2023/07/07 06:55:24;;;;;;;7.82;3.72;;;;;;;22.42;51.21;101884.06;4996621;28;20289;-54
2023/07/07 06:57:50;;;;;;;10.18;3.97;;;;;;;22.60;49.79;101883.88;5001161;28;20102;-51
2023/07/07 07:00:16;;;;;;;7.88;3.63;;;;;;;22.83;49.38;101891.25;5001826;28;20046;-51
2023/07/07 07:02:43;;;;;;;7.65;3.60;;;;;;;23.01;48.80;101899.19;4996537;28;20081;-49
2023/07/07 07:05:08;;;;;;;9.68;3.63;;;;;;;23.24;48.71;101891.16;4991511;28;20066;-52
2023/07/07 07:07:33;;;;;;;5.78;3.33;;;;;;;23.52;46.82;101891.53;5000197;28;20072;-53
2023/07/07 07:10:02;;;;;;;10.27;3.80;;;;;;;23.77;46.98;101883.28;4995732;28;20499;-54
2023/07/07 07:12:28;;;;;;;6.80;3.40;;;;;;;24.01;46.83;101887.69;4990366;28;20054;-52
2023/07/07 07:14:53;;;;;;;9.25;3.50;;;;;;;24.15;44.99;101884.19;4997909;28;20076;-53
2023/07/07 07:17:18;;;;;;;6.75;2.97;;;;;;;24.43;44.94;101891.78;5000312;28;20529;-53
2023/07/07 07:19:43;;;;;;;5.45;2.78;;;;;;;24.78;44.94;101897.56;5002796;28;20107;-52
2023/07/07 07:22:09;;;;;;;6.93;3.30;;;;;;;24.94;44.06;101893.81;4999328;28;20028;-54
2023/07/07 07:24:34;;;;;;;6.85;3.30;;;;;;;25.24;42.89;101888.34;5004531;28;20026;-51
2023/07/07 07:26:59;;;;;;;5.70;2.77;;;;;;;25.45;41.78;101893.06;5000688;28;20101;-55
2023/07/07 07:29:25;;;;;;;5.50;2.55;;;;;;;25.60;41.60;101890.31;4999431;28;20320;-54
2023/07/07 07:31:50;;;;;;;4.75;2.60;;;;;;;25.87;44.11;101890.59;4998128;28;20112;-52
2023/07/07 07:34:33;;;;;;;4.43;2.63;;;;;;;26.18;42.74;101891.13;5000578;28;20054;-54
2023/07/07 07:37:00;;;;;;;6.68;2.40;;;;;;;26.36;39.55;101900.69;5000162;28;20033;-55
2023/07/07 07:39:27;;;;;;;4.70;2.33;;;;;;;26.52;38.76;101900.41;4999420;28;20364;-52
2023/07/07 07:41:53;;;;;;;3.67;2.25;;;;;;;26.65;37.99;101891.53;4994038;28;20034;-53
2023/07/07 07:44:21;;;;;;;3.83;2.05;;;;;;;26.94;38.76;101895.06;4992378;28;20346;-55
2023/07/07 07:46:48;;;;;;;5.13;2.40;;;;;;;26.97;39.00;101897.38;4995536;28;20039;-55
2023/07/07 07:49:14;;;;;;;6.97;2.45;;;;;;;27.19;38.03;101889.09;5004696;28;20036;-53
2023/07/07 07:51:40;;;;;;;4.22;2.03;;;;;;;27.47;36.97;101898.03;4997037;28;20035;-55
2023/07/07 07:54:11;;;;;;;6.30;2.30;;;;;;;27.64;38.08;101897.69;5000022;28;20129;-54
2023/07/07 07:56:37;;;;;;;7.78;2.38;;;;;;;27.80;35.71;101891.84;4993666;28;20035;-54
2023/07/07 07:59:03;;;;;;;5.68;2.20;;;;;;;27.95;36.24;101894.44;4998725;28;20026;-55
2023/07/07 08:01:28;;;;;;;6.70;2.63;;;;;;;28.09;37.20;101892.53;4996095;28;20389;-56
2023/07/07 08:03:55;;;;;;;2.67;1.85;;;;;;;28.30;35.25;101896.13;4997144;28;20022;-54
2023/07/07 08:06:20;;;;;;;4.20;2.20;;;;;;;28.46;36.13;101892.13;4999362;28;20022;-54
2023/07/07 08:08:46;;;;;;;4.90;2.47;;;;;;;28.57;34.11;101900.53;4995497;28;20023;-56
2023/07/07 08:11:17;;;;;;;5.43;2.33;;;;;;;28.74;35.30;101897.38;4996037;28;20038;-53
2023/07/07 08:13:43;;;;;;;5.47;2.25;;;;;;;28.77;33.13;101899.69;4998150;28;20041;-55
2023/07/07 08:16:10;;;;;;;5.75;2.30;;;;;;;28.92;33.10;101902.19;4993753;28;20030;-54
2023/07/07 08:18:36;;;;;;;4.13;2.40;;;;;;;29.20;33.00;101899.16;5010362;28;20026;-55
2023/07/07 08:21:01;;;;;;;8.20;2.25;;;;;;;29.34;32.81;101903.53;4996375;28;20024;-55
2023/07/07 08:23:26;;;;;;;4.00;1.73;;;;;;;29.29;32.39;101899.75;4999090;28;20057;-56
2023/07/07 08:25:52;;;;;;;4.75;2.20;;;;;;;29.67;32.83;101897.03;4995584;28;20036;-54
2023/07/07 08:28:18;;;;;;;2.80;1.95;;;;;;;29.77;30.96;101893.84;5002054;28;20045;-53
2023/07/07 08:30:43;;;;;;;3.92;1.88;;;;;;;29.88;30.91;101904.09;4995340;28;20565;-52
2023/07/07 08:33:08;;;;;;;3.85;1.98;;;;;;;30.02;30.21;101895.78;4999311;28;20049;-53
2023/07/07 08:35:34;;;;;;;4.43;2.00;;;;;;;30.01;29.88;101889.50;4998754;28;20410;-55
2023/07/07 08:38:00;;;;;;;6.97;2.20;;;;;;;30.32;29.43;101895.97;4993188;28;20472;-55
2023/07/07 08:40:35;;;;;;;5.43;1.88;;;;;;;30.48;30.46;101888.25;4999257;28;20136;-53
2023/07/07 08:43:01;;;;;;;2.90;1.75;;;;;;;30.52;30.08;101893.06;4996751;28;20118;-52
2023/07/07 08:45:27;;;;;;;6.80;2.20;;;;;;;30.78;30.03;101889.22;4996208;28;20034;-52
2023/07/07 08:48:37;;;;;;;5.15;2.10;;;;;;;31.03;32.48;101891.09;4998402;28;20030;-53
2023/07/07 08:51:07;;;;;;;3.25;2.13;;;;;;;30.99;29.67;101892.59;4959595;28;20031;-52
2023/07/07 08:53:55;;;;;;;3.22;1.52;;;;;;;31.12;27.67;101894.38;4993607;28;20038;-56
2023/07/07 08:56:33;;;;;;;4.95;2.10;;;;;;;31.17;28.23;101889.03;4958889;28;20034;-53
2023/07/07 08:59:26;;;;;;;3.70;1.85;;;;;;;31.53;29.40;101890.91;4986452;28;20069;-54
2023/07/07 09:02:07;;;;;;;4.18;2.00;;;;;;;31.50;27.79;101891.31;4986873;28;20042;-53
2023/07/07 09:04:52;;;;;;;5.15;1.90;;;;;;;31.84;28.82;101891.72;4994376;28;20101;-52
2023/07/07 09:07:35;;;;;;;4.53;2.13;;;;;;;32.05;27.84;101893.06;4991680;28;20172;-52
2023/07/07 09:10:39;;;;;;;2.58;1.58;;;;;;;32.31;29.21;101890.16;4991387;28;20030;-54
2023/07/07 09:13:14;;;;;;;4.65;1.77;;;;;;;32.42;27.82;101886.56;4992121;28;20128;-52
2023/07/07 09:15:44;;;;;;;3.15;1.75;;;;;;;32.39;25.51;101885.16;5000012;28;20034;-53
2023/07/07 09:18:17;;;;;;;3.75;1.92;;;;;;;32.47;25.26;101886.69;4995461;28;20138;-54
2023/07/07 09:20:45;;;;;;;6.13;2.05;;;;;;;32.28;25.32;101889.56;4996945;28;20074;-53
2023/07/07 09:23:19;;;;;;;2.75;1.92;;;;;;;32.56;26.49;101884.41;5004110;28;20030;-52
2023/07/07 09:25:52;;;;;;;3.40;1.98;;;;;;;32.71;24.63;101887.56;5000721;28;20030;-52
2023/07/07 09:28:17;;;;;;;2.58;1.95;;;;;;;32.79;24.84;101880.81;4999363;28;20036;-52
2023/07/07 09:31:09;;;;;;;4.30;1.70;;;;;;;33.14;27.22;101889.03;5002071;28;20415;-52
2023/07/07 09:33:34;;;;;;;4.18;2.00;;;;;;;33.01;23.87;101890.13;4995991;28;20113;-52
2023/07/07 09:36:13;;;;;;;3.60;2.05;;;;;;;33.02;24.47;101890.94;4997370;28;20434;-53
2023/07/07 09:38:55;;;;;;;3.55;2.10;;;;;;;33.43;26.53;101879.97;4999465;28;20389;-54
2023/07/07 09:41:41;;;;;;;3.47;2.10;;;;;;;33.52;25.56;101883.97;4998582;28;20030;-52
2023/07/07 09:44:32;;;;;;;5.40;2.20;;;;;;;33.73;26.45;101880.56;5002315;28;20037;-54
2023/07/07 09:47:24;;;;;;;3.42;1.67;;;;;;;33.97;25.93;101866.63;4996410;28;20057;-53
2023/07/07 09:50:00;;;;;;;2.35;1.75;;;;;;;33.99;24.09;101869.97;4998041;28;20033;-53
2023/07/07 09:52:43;;;;;;;3.25;1.90;;;;;;;34.05;24.02;101879.16;4997716;28;20390;-52
2023/07/07 09:55:15;;;;;;;4.28;2.00;;;;;;;33.78;24.75;101867.97;5000689;28;20036;-52
2023/07/07 09:57:46;;;;;;;3.40;1.95;;;;;;;33.86;23.57;101859.28;4990810;28;20478;-52
2023/07/07 10:00:20;;;;;;;5.65;2.10;;;;;;;33.89;23.15;101858.75;4994101;28;20034;-52
2023/07/07 10:02:45;;;;;;;2.20;1.95;;;;;;;33.95;22.94;101851.44;4995606;28;20427;-53
2023/07/07 10:05:16;;;;;;;2.47;1.75;;;;;;;34.04;23.99;101852.66;4995258;28;20030;-52
2023/07/07 10:07:42;;;;;;;3.10;1.65;;;;;;;34.30;22.19;101856.69;4995060;28;20069;-53
2023/07/07 10:10:13;;;;;;;2.25;1.92;;;;;;;34.15;22.50;101851.75;5000584;28;20017;-54
2023/07/07 10:12:40;;;;;;;5.82;1.90;;;;;;;34.02;22.23;101847.41;4996849;28;20120;-53
2023/07/07 10:15:42;;;;;;;6.82;2.42;;;;;;;34.50;24.51;101845.13;4988990;28;20452;-55
2023/07/07 10:18:15;;;;;;;4.32;1.77;;;;;;;34.47;23.93;101842.88;4989633;28;20049;-56
2023/07/07 10:20:41;;;;;;;2.92;1.63;;;;;;;34.65;22.75;101838.97;4998667;28;20053;-53
2023/07/07 10:23:11;;;;;;;3.60;1.80;;;;;;;34.51;22.01;101844.03;5002534;28;20495;-53
2023/07/07 10:25:37;;;;;;;4.18;2.00;;;;;;;34.95;22.34;101838.56;4996043;28;20057;-53
2023/07/07 10:28:03;;;;;;;2.53;1.92;;;;;;;34.90;20.72;101835.75;5002608;28;20038;-53
2023/07/07 10:30:29;;;;;;;5.43;2.20;;;;;;;34.93;21.64;101834.41;5000431;28;20471;-52
2023/07/07 10:32:55;;;;;;;2.80;1.80;;;;;;;35.32;21.32;101837.88;4995667;28;20402;-52
2023/07/07 10:35:24;;;;;;;3.67;1.90;;;;;;;35.09;21.43;101844.53;4999521;28;20050;-53
2023/07/07 10:37:49;;;;;;;5.97;2.10;;;;;;;35.12;21.01;101832.13;4998436;28;20070;-54
2023/07/07 10:40:24;;;;;;;2.50;1.85;;;;;;;35.35;20.96;101839.31;5000511;28;20542;-52
2023/07/07 10:42:52;;;;;;;5.07;2.28;;;;;;;35.26;20.44;101840.84;4997979;28;20042;-53
2023/07/07 10:45:17;;;;;;;4.75;2.40;;;;;;;35.46;21.35;101829.19;4997905;28;20030;-53
2023/07/07 10:47:43;;;;;;;5.93;2.23;;;;;;;35.25;21.72;101823.47;4998008;28;20395;-54
2023/07/07 10:50:15;;;;;;;2.35;2.15;;;;;;;35.65;21.47;101818.59;4999356;28;20317;-52
2023/07/07 10:52:50;;;;;;;3.40;2.13;;;;;;;35.72;20.36;101822.81;4996873;28;20096;-59
2023/07/07 10:55:31;;;;;;;3.75;2.00;;;;;;;35.61;20.54;101826.59;5000395;28;20030;-56
2023/07/07 10:58:06;;;;;;;5.75;2.03;;;;;;;35.46;20.70;101821.75;4994784;28;20045;-56
2023/07/07 11:00:45;;;;;;;4.88;2.38;;;;;;;35.81;20.89;101814.91;4997357;28;20553;-53
2023/07/07 11:03:13;;;;;;;5.05;2.08;;;;;;;36.14;21.50;101812.91;4983718;28;20050;-54
2023/07/07 11:05:47;;;;;;;3.22;2.33;;;;;;;36.06;19.80;101816.19;4994748;28;20029;-50
2023/07/07 11:08:42;;;;;;;2.90;1.98;;;;;;;36.30;21.88;101820.22;4994632;28;20042;-52
2023/07/07 11:11:42;;;;;;;2.17;1.98;;;;;;;36.32;21.68;101819.13;4996959;28;20026;-52
2023/07/07 11:14:37;;;;;;;5.10;2.20;;;;;;;36.31;19.92;101821.06;4992037;28;20064;-51
2023/07/07 11:17:38;;;;;;;5.72;2.15;;;;;;;36.09;20.80;101808.19;4993601;28;20055;-51
2023/07/07 11:20:40;;;;;;;4.50;2.15;;;;;;;35.93;20.06;101811.94;4993876;28;20041;-51
2023/07/07 11:23:33;;;;;;;4.82;2.40;;;;;;;35.74;20.14;101812.34;4995551;28;20128;-53
2023/07/07 11:26:13;;;;;;;4.88;2.30;;;;;;;35.33;19.63;101809.19;5000625;28;20041;-52
2023/07/07 11:28:53;;;;;;;2.40;2.10;;;;;;;35.15;21.09;101798.47;4997984;28;20100;-54
2023/07/07 11:31:56;;;;;;;6.07;2.13;;;;;;;35.45;22.08;101799.91;4987108;28;20061;-52
2023/07/07 11:34:24;;;;;;;4.53;2.20;;;;;;;35.54;19.10;101793.63;4989478;28;20049;-54
2023/07/07 11:37:29;;;;;;;4.95;2.10;;;;;;;35.90;21.47;101795.88;4992804;28;20018;-53